Accueil
METAR-TAF:

METAR-TAF

Aéroports :

Djeddah, Arabie saoudite

Aéroport international Roi-Abdelaziz

latitude: 21-42N, longitude: 039-11E, altitude: 15 m

Observation

Le bulletin a été fait il y a 51 minutes, à 01:00 UTC
Vent 12 kt de ouest
Température 32°C
Humidité 52%
Pression 1002 hPa
Visibilité 10 km ou plus
pas de nuages en-dessous de 1500 mètres et pas de cumulonimbus.

METAR: OEJN 190100Z 27912KT CAVOK 32/21 Q1002 NOSIG

Heure: 04:51 (01:51 UTC)

Prévision

Le bulletin a été fait il y a 2 heures et 51 minutes, à 23:00 UTC
Prévision valable du 19 à 00 UTC au 20 à 06 UTC
Vent 6 kt de nord
Visibilité: 7000 m
Quelques nuages à une hauteur de 4000 ft
Nuages épars à une hauteur de 10000 ft
Evoluant progressivement
du 19 à 06 UTC au 19 à 08 UTC
Vent 15 kt de ouest/nord-ouest

TAF: OEJN 182300Z 1900/2006 36006KT 7000 FEW040 SCT100 BECMG 1906/1908 30015KT

Observations et prévisions météorologiques de plus de 4000 aéroports (messages METAR et TAF).

Les stations disponibles sont représentées par des disques jaunes et rouges sur la carte.

Passer la souris dessus pour voir le nom de la station.

Cliquer dessus pour voir les observations et prévisions météorologiques.

Pour changer de carte: cliquez sur les boutons verts avec une croix noire pour zoomer, sur le bouton vert avec un tiret pour effectuer un zoom arrière, ou sur les flèches vertes pour les cartes adjacentes.


METAR-TAF: